• Join FlightAware (Why Join?)
  • Login
  • US Flag 
03:19PM EDT


 

Airport Tracker/Info


-or-


 

Live Flight TrackerFlight Track Log ✈ AWI3778 ✈ 20-Jun-2013 ✈ KBTV - KPHL

Flight Track Log - Related Links

Times and Time Zones

All times are in EDT time to prevent confusion due to time zone crossing. See the AWI3778 flight status page for this flight to view local times or setup timezone preferences in your user account.

Time Position Orientation Groundspeed Altitude Reporting Facility
EDT Latitude Longitude Course Direction KTS MPH feet Rate Location/Type
01:33PM 44.2681 -73.2261 196° South  Level FlightAware Approximate
01:34PM 44.1682 -73.2594 196° South  Level FlightAware Approximate
01:34PM 44.2594 -73.1097 174° South 308 354 9,100  Level Boston Center
01:35PM 44.0690 -73.2990 196° South  Level FlightAware Approximate
01:35PM 44.1697 -73.1028 177° South 311 358 10,000  Level Boston Center
01:36PM 43.9699 -73.3388 196° South  Level FlightAware Approximate
01:36PM 44.0778 -73.1481 199° South 338 389 11,100  Level Boston Center
01:37PM 43.8705 -73.3776 195° South  Level FlightAware Approximate
01:37PM 43.9858 -73.1961 201° Southwest 358 412 13,800  Level Boston Center
01:38PM 43.7708 -73.4144 195° South  Level FlightAware Approximate
01:38PM 43.8939 -73.2411 199° South 358 412 15,600  Level Boston Center
01:39PM 43.6711 -73.4511 195° South  Level FlightAware Approximate
01:39PM 43.7936 -73.2914 200° South 364 419 16,000  Level Boston Center
01:40PM 43.6742 -73.3528 200° South 409 471 16,700 1,320 Climbing Boston Center
01:41PM 43.5842 -73.3975 200° South 409 471 18,700 1,680 Climbing Boston Center
01:42PM 43.5064 -73.4878 220° Southwest 381 438 20,100 1,200 Climbing Boston Center
01:43PM 43.4264 -73.5778 219° Southwest 386 444 21,100 960 Climbing Boston Center
01:44PM 43.3419 -73.6706 219° Southwest 386 444 22,100 900 Climbing Boston Center
01:45PM 43.2597 -73.7714 222° Southwest 391 450 23,000 900 Climbing Boston Center
01:46PM 43.1772 -73.8636 219° Southwest 391 450 24,000 480 Climbing Boston Center
01:47PM 43.0883 -73.9611 219° Southwest 396 456 24,000  Level Boston Center
01:48PM 42.9975 -74.0639 220° Southwest 412 474 24,000  Level Boston Center
01:49PM 42.9064 -74.1664 220° Southwest 417 480 24,000  Level Boston Center
01:50PM 42.8150 -74.2656 219° Southwest 424 488 24,000  Level Boston Center
01:51PM 42.7258 -74.3650 219° Southwest 424 488 24,000  Level Boston Center
01:52PM 42.6367 -74.4636 219° Southwest 419 482 24,000  Level Boston Center
01:53PM 42.5475 -74.5594 218° Southwest 419 482 24,000  Level Boston Center
01:54PM 42.4581 -74.6578 219° Southwest 419 482 24,000 -600 Level Boston Center
01:56PM 42.3125 -74.8117 218° Southwest 418 481 22,600 -960 Descending New York Center
01:57PM 42.2217 -74.9097 219° Southwest 418 481 21,600 -1,020 Descending New York Center
01:58PM 42.1375 -74.9939 217° Southwest 418 481 20,600 -1,020 Descending New York Center
01:59PM 42.0369 -75.0711 210° Southwest 423 487 19,600 -840 Descending New York Center
02:00PM 41.9403 -75.1542 213° Southwest 423 487 19,000 -360 Descending New York Center
02:01PM 41.8331 -75.2417 211° Southwest 418 481 18,900 -960 Descending New York Center
02:02PM 41.7342 -75.3211 211° Southwest 418 481 17,200 -1,740 Descending New York Center
02:03PM 41.6353 -75.4031 212° Southwest 418 481 15,400 -1,920 Descending New York Center
02:04PM 41.5472 -75.4719 210° Southwest 418 481 13,400 -1,680 Descending New York Center
02:05PM 41.4544 -75.5483 212° Southwest 411 473 12,000 -720 Descending New York Center
02:06PM 41.3642 -75.6194 211° Southwest 394 453 12,000  Level New York Center
02:07PM 41.2656 -75.6842 206° Southwest 375 432 12,000  Level New York Center
02:08PM 41.1633 -75.6878 182° South 355 409 12,000  Level New York Center
02:09PM 41.0697 -75.6864 179° South 373 429 12,000  Level New York Center
02:10PM 40.9675 -75.6872 180° South 378 435 12,000  Level New York Center
02:11PM 40.8531 -75.6872 180° South 378 435 12,000  Level New York Center
02:12PM 40.7508 -75.6881 180° South 378 435 12,000 -360 Level New York Center
02:13PM 40.6581 -75.6678 171° South 378 435 11,300 -540 Descending New York Center
02:14PM 40.5742 -75.5772 141° Southeast 370 426 11,000 -360 Descending New York Center
02:15PM 40.5006 -75.4900 138° Southeast 360 414 10,700 -1,020 Descending New York Center
02:16PM 40.4217 -75.4328 151° Southeast 315 362 9,000 -1,380 Descending New York Center
02:17PM 40.3519 -75.4008 161° South 289 333 8,000 -1,440 Descending New York Center
02:18PM 40.2783 -75.3661 160° South 284 327 6,200 -1,920 Descending New York Center
02:19PM 40.1986 -75.3281 160° South 284 327 4,200 -1,140 Descending New York Center
02:20PM 40.1308 -75.2967 161° South 271 312 4,000 -180 Descending New York Center
02:20PM 40.1000 -75.2667 143° Southeast 264 304 4,000  Level Philadelphia TRACON
02:21PM 40.0333 -75.2333 159° South 255 293 4,000  Level Philadelphia TRACON
02:22PM 39.9667 -75.1833 150° Southeast 258 297 4,000  Level Philadelphia TRACON
02:23PM 39.9000 -75.1500 159° South 242 278 4,000  Level Philadelphia TRACON